sensor_id;sensor_type;location;lat;lon;timestamp;P1;durP1;ratioP1;P2;durP2;ratioP2
20365;SDS011;10341;49.894;8.822;2023-04-29T00:04:55;3.38;;;2.40;;
20365;SDS011;10341;49.894;8.822;2023-04-29T00:10:15;3.50;;;2.33;;
20365;SDS011;10341;49.894;8.822;2023-04-29T00:15:34;4.15;;;2.40;;
20365;SDS011;10341;49.894;8.822;2023-04-29T00:20:55;3.60;;;2.20;;
20365;SDS011;10341;49.894;8.822;2023-04-29T00:26:14;2.80;;;2.30;;
20365;SDS011;10341;49.894;8.822;2023-04-29T00:31:38;2.60;;;2.20;;
20365;SDS011;10341;49.894;8.822;2023-04-29T00:36:57;5.05;;;2.33;;
20365;SDS011;10341;49.894;8.822;2023-04-29T00:42:16;2.25;;;2.00;;
20365;SDS011;10341;49.894;8.822;2023-04-29T00:47:36;3.87;;;2.30;;
20365;SDS011;10341;49.894;8.822;2023-04-29T00:52:56;2.50;;;2.30;;
20365;SDS011;10341;49.894;8.822;2023-04-29T00:58:15;2.88;;;2.40;;
20365;SDS011;10341;49.894;8.822;2023-04-29T01:03:35;2.80;;;2.30;;
20365;SDS011;10341;49.894;8.822;2023-04-29T01:09:05;6.43;;;2.90;;
20365;SDS011;10341;49.894;8.822;2023-04-29T01:15:04;4.80;;;3.83;;
20365;SDS011;10341;49.894;8.822;2023-04-29T01:20:27;5.60;;;3.50;;
20365;SDS011;10341;49.894;8.822;2023-04-29T01:25:48;4.18;;;3.30;;
20365;SDS011;10341;49.894;8.822;2023-04-29T01:31:35;4.22;;;3.40;;
20365;SDS011;10341;49.894;8.822;2023-04-29T01:42:44;7.07;;;3.20;;
20365;SDS011;10341;49.894;8.822;2023-04-29T01:48:11;5.15;;;3.10;;
20365;SDS011;10341;49.894;8.822;2023-04-29T01:53:31;4.93;;;2.85;;
20365;SDS011;10341;49.894;8.822;2023-04-29T01:58:51;5.07;;;2.92;;
20365;SDS011;10341;49.894;8.822;2023-04-29T02:04:26;3.28;;;2.97;;
20365;SDS011;10341;49.894;8.822;2023-04-29T02:09:46;3.15;;;2.63;;
20365;SDS011;10341;49.894;8.822;2023-04-29T02:15:06;3.05;;;2.70;;
20365;SDS011;10341;49.894;8.822;2023-04-29T02:25:45;4.70;;;3.45;;
20365;SDS011;10341;49.894;8.822;2023-04-29T02:31:05;3.42;;;3.13;;
20365;SDS011;10341;49.894;8.822;2023-04-29T02:36:25;4.10;;;3.20;;
20365;SDS011;10341;49.894;8.822;2023-04-29T02:41:44;4.90;;;3.25;;
20365;SDS011;10341;49.894;8.822;2023-04-29T02:47:03;5.30;;;3.65;;
20365;SDS011;10341;49.894;8.822;2023-04-29T02:52:23;8.32;;;3.97;;
20365;SDS011;10341;49.894;8.822;2023-04-29T02:57:42;7.47;;;4.43;;
20365;SDS011;10341;49.894;8.822;2023-04-29T03:03:02;6.10;;;4.63;;
20365;SDS011;10341;49.894;8.822;2023-04-29T03:08:22;8.82;;;5.30;;
20365;SDS011;10341;49.894;8.822;2023-04-29T03:13:41;8.57;;;5.30;;
20365;SDS011;10341;49.894;8.822;2023-04-29T03:19:00;7.63;;;5.53;;
20365;SDS011;10341;49.894;8.822;2023-04-29T03:24:20;10.40;;;5.87;;
20365;SDS011;10341;49.894;8.822;2023-04-29T03:29:39;7.80;;;5.88;;
20365;SDS011;10341;49.894;8.822;2023-04-29T03:34:59;8.10;;;6.00;;
20365;SDS011;10341;49.894;8.822;2023-04-29T03:40:28;7.80;;;6.00;;
20365;SDS011;10341;49.894;8.822;2023-04-29T03:45:48;8.68;;;6.05;;
20365;SDS011;10341;49.894;8.822;2023-04-29T03:51:11;9.63;;;6.03;;
20365;SDS011;10341;49.894;8.822;2023-04-29T04:01:50;10.85;;;6.93;;
20365;SDS011;10341;49.894;8.822;2023-04-29T04:07:12;9.95;;;6.70;;
20365;SDS011;10341;49.894;8.822;2023-04-29T04:12:51;9.82;;;6.50;;
20365;SDS011;10341;49.894;8.822;2023-04-29T04:18:11;11.02;;;6.65;;
20365;SDS011;10341;49.894;8.822;2023-04-29T04:23:31;8.32;;;6.10;;
20365;SDS011;10341;49.894;8.822;2023-04-29T04:28:51;7.22;;;5.68;;
20365;SDS011;10341;49.894;8.822;2023-04-29T04:34:21;8.15;;;5.72;;
20365;SDS011;10341;49.894;8.822;2023-04-29T04:39:43;8.90;;;6.10;;
20365;SDS011;10341;49.894;8.822;2023-04-29T04:45:05;12.63;;;7.00;;
20365;SDS011;10341;49.894;8.822;2023-04-29T04:50:35;7.80;;;6.00;;
20365;SDS011;10341;49.894;8.822;2023-04-29T04:55:55;10.33;;;6.33;;
20365;SDS011;10341;49.894;8.822;2023-04-29T05:01:19;9.38;;;5.40;;
20365;SDS011;10341;49.894;8.822;2023-04-29T05:06:39;6.65;;;5.20;;
20365;SDS011;10341;49.894;8.822;2023-04-29T05:11:59;7.55;;;5.70;;
20365;SDS011;10341;49.894;8.822;2023-04-29T05:17:23;10.70;;;6.20;;
20365;SDS011;10341;49.894;8.822;2023-04-29T05:22:43;7.88;;;5.78;;
20365;SDS011;10341;49.894;8.822;2023-04-29T05:28:02;9.57;;;6.53;;
20365;SDS011;10341;49.894;8.822;2023-04-29T05:33:26;12.05;;;8.10;;
20365;SDS011;10341;49.894;8.822;2023-04-29T05:38:46;14.52;;;8.48;;
20365;SDS011;10341;49.894;8.822;2023-04-29T05:44:05;14.43;;;8.70;;
20365;SDS011;10341;49.894;8.822;2023-04-29T05:49:24;12.73;;;8.02;;
20365;SDS011;10341;49.894;8.822;2023-04-29T05:54:43;13.50;;;8.15;;
20365;SDS011;10341;49.894;8.822;2023-04-29T06:00:04;12.68;;;7.63;;
20365;SDS011;10341;49.894;8.822;2023-04-29T06:05:32;14.05;;;8.38;;
20365;SDS011;10341;49.894;8.822;2023-04-29T06:11:10;12.60;;;8.02;;
20365;SDS011;10341;49.894;8.822;2023-04-29T06:16:30;11.15;;;7.28;;
20365;SDS011;10341;49.894;8.822;2023-04-29T06:21:50;11.23;;;7.07;;
20365;SDS011;10341;49.894;8.822;2023-04-29T06:27:09;11.20;;;7.00;;
20365;SDS011;10341;49.894;8.822;2023-04-29T06:32:29;10.35;;;6.43;;
20365;SDS011;10341;49.894;8.822;2023-04-29T06:37:48;8.57;;;5.20;;
20365;SDS011;10341;49.894;8.822;2023-04-29T06:43:31;7.75;;;4.90;;
20365;SDS011;10341;49.894;8.822;2023-04-29T06:49:14;7.45;;;5.18;;
20365;SDS011;10341;49.894;8.822;2023-04-29T06:54:34;7.43;;;4.88;;
20365;SDS011;10341;49.894;8.822;2023-04-29T06:59:53;9.30;;;4.33;;
20365;SDS011;10341;49.894;8.822;2023-04-29T07:05:12;7.35;;;4.85;;
20365;SDS011;10341;49.894;8.822;2023-04-29T07:10:32;7.10;;;4.50;;
20365;SDS011;10341;49.894;8.822;2023-04-29T07:15:51;7.68;;;4.50;;
20365;SDS011;10341;49.894;8.822;2023-04-29T07:21:11;5.78;;;3.83;;
20365;SDS011;10341;49.894;8.822;2023-04-29T07:31:50;6.25;;;3.78;;
20365;SDS011;10341;49.894;8.822;2023-04-29T07:37:09;7.88;;;4.15;;
20365;SDS011;10341;49.894;8.822;2023-04-29T07:42:29;6.53;;;3.88;;
20365;SDS011;10341;49.894;8.822;2023-04-29T07:47:44;5.25;;;3.35;;
20365;SDS011;10341;49.894;8.822;2023-04-29T07:53:04;5.15;;;3.58;;
20365;SDS011;10341;49.894;8.822;2023-04-29T07:58:23;6.65;;;3.70;;
20365;SDS011;10341;49.894;8.822;2023-04-29T08:03:43;4.80;;;3.73;;
20365;SDS011;10341;49.894;8.822;2023-04-29T08:09:04;5.22;;;3.75;;
20365;SDS011;10341;49.894;8.822;2023-04-29T08:14:24;5.40;;;3.67;;
20365;SDS011;10341;49.894;8.822;2023-04-29T08:19:44;5.60;;;3.70;;
20365;SDS011;10341;49.894;8.822;2023-04-29T08:25:03;5.40;;;3.20;;
20365;SDS011;10341;49.894;8.822;2023-04-29T08:30:23;5.18;;;3.17;;
20365;SDS011;10341;49.894;8.822;2023-04-29T08:35:42;6.25;;;3.67;;
20365;SDS011;10341;49.894;8.822;2023-04-29T08:41:01;5.53;;;3.67;;
20365;SDS011;10341;49.894;8.822;2023-04-29T08:46:21;5.40;;;3.35;;
20365;SDS011;10341;49.894;8.822;2023-04-29T08:51:43;5.05;;;3.10;;
20365;SDS011;10341;49.894;8.822;2023-04-29T08:57:03;4.30;;;2.73;;
20365;SDS011;10341;49.894;8.822;2023-04-29T09:02:24;3.03;;;2.10;;
20365;SDS011;10341;49.894;8.822;2023-04-29T09:07:43;2.55;;;2.13;;
20365;SDS011;10341;49.894;8.822;2023-04-29T09:13:03;4.18;;;2.15;;
20365;SDS011;10341;49.894;8.822;2023-04-29T09:18:42;2.88;;;2.30;;
20365;SDS011;10341;49.894;8.822;2023-04-29T09:24:02;3.63;;;2.20;;
20365;SDS011;10341;49.894;8.822;2023-04-29T09:29:22;2.53;;;2.13;;
20365;SDS011;10341;49.894;8.822;2023-04-29T09:34:41;3.43;;;2.40;;
20365;SDS011;10341;49.894;8.822;2023-04-29T09:40:00;4.22;;;2.70;;
20365;SDS011;10341;49.894;8.822;2023-04-29T09:45:35;3.87;;;2.70;;
20365;SDS011;10341;49.894;8.822;2023-04-29T09:50:59;2.75;;;1.98;;
20365;SDS011;10341;49.894;8.822;2023-04-29T09:56:20;3.03;;;2.28;;
20365;SDS011;10341;49.894;8.822;2023-04-29T10:01:40;3.60;;;2.28;;
20365;SDS011;10341;49.894;8.822;2023-04-29T10:06:59;5.35;;;2.40;;
20365;SDS011;10341;49.894;8.822;2023-04-29T10:12:20;3.20;;;2.30;;
20365;SDS011;10341;49.894;8.822;2023-04-29T10:17:42;3.28;;;2.17;;
20365;SDS011;10341;49.894;8.822;2023-04-29T10:23:07;3.65;;;2.47;;
20365;SDS011;10341;49.894;8.822;2023-04-29T10:28:31;4.10;;;2.50;;
20365;SDS011;10341;49.894;8.822;2023-04-29T10:33:51;3.50;;;2.72;;
20365;SDS011;10341;49.894;8.822;2023-04-29T10:39:15;3.97;;;2.97;;
20365;SDS011;10341;49.894;8.822;2023-04-29T10:45:15;2.58;;;2.13;;
20365;SDS011;10341;49.894;8.822;2023-04-29T10:56:08;3.67;;;1.65;;
20365;SDS011;10341;49.894;8.822;2023-04-29T11:07:26;4.80;;;2.22;;
20365;SDS011;10341;49.894;8.822;2023-04-29T11:12:46;2.75;;;2.38;;
20365;SDS011;10341;49.894;8.822;2023-04-29T11:18:09;2.70;;;2.00;;
20365;SDS011;10341;49.894;8.822;2023-04-29T11:23:29;2.20;;;1.98;;
20365;SDS011;10341;49.894;8.822;2023-04-29T11:28:50;4.28;;;2.47;;
20365;SDS011;10341;49.894;8.822;2023-04-29T11:34:09;3.60;;;2.42;;
20365;SDS011;10341;49.894;8.822;2023-04-29T11:39:32;2.67;;;1.70;;
20365;SDS011;10341;49.894;8.822;2023-04-29T11:44:53;2.70;;;2.15;;
20365;SDS011;10341;49.894;8.822;2023-04-29T11:50:15;3.22;;;2.30;;
20365;SDS011;10341;49.894;8.822;2023-04-29T11:55:37;4.60;;;2.30;;
20365;SDS011;10341;49.894;8.822;2023-04-29T12:00:57;2.45;;;2.00;;
20365;SDS011;10341;49.894;8.822;2023-04-29T12:06:16;5.60;;;2.00;;
20365;SDS011;10341;49.894;8.822;2023-04-29T12:11:35;2.17;;;1.75;;
20365;SDS011;10341;49.894;8.822;2023-04-29T12:16:55;2.58;;;1.90;;
20365;SDS011;10341;49.894;8.822;2023-04-29T12:22:14;3.25;;;2.20;;
20365;SDS011;10341;49.894;8.822;2023-04-29T12:27:34;1.95;;;1.52;;
20365;SDS011;10341;49.894;8.822;2023-04-29T12:32:54;2.65;;;1.60;;
20365;SDS011;10341;49.894;8.822;2023-04-29T12:38:23;2.10;;;1.90;;
20365;SDS011;10341;49.894;8.822;2023-04-29T12:49:07;2.05;;;1.83;;
20365;SDS011;10341;49.894;8.822;2023-04-29T12:54:26;1.97;;;1.77;;
20365;SDS011;10341;49.894;8.822;2023-04-29T12:59:45;1.80;;;1.63;;
20365;SDS011;10341;49.894;8.822;2023-04-29T13:05:04;2.37;;;1.70;;
20365;SDS011;10341;49.894;8.822;2023-04-29T13:10:23;2.50;;;1.80;;
20365;SDS011;10341;49.894;8.822;2023-04-29T13:15:42;2.22;;;1.95;;
20365;SDS011;10341;49.894;8.822;2023-04-29T13:21:02;2.95;;;2.30;;
20365;SDS011;10341;49.894;8.822;2023-04-29T13:26:21;2.72;;;2.00;;
20365;SDS011;10341;49.894;8.822;2023-04-29T13:31:42;2.10;;;1.70;;
20365;SDS011;10341;49.894;8.822;2023-04-29T13:37:01;2.10;;;1.90;;
20365;SDS011;10341;49.894;8.822;2023-04-29T13:42:21;1.88;;;1.50;;
20365;SDS011;10341;49.894;8.822;2023-04-29T13:47:40;1.70;;;1.60;;
20365;SDS011;10341;49.894;8.822;2023-04-29T13:53:02;3.22;;;1.95;;
20365;SDS011;10341;49.894;8.822;2023-04-29T13:58:21;1.88;;;1.50;;
20365;SDS011;10341;49.894;8.822;2023-04-29T14:03:41;1.83;;;1.60;;
20365;SDS011;10341;49.894;8.822;2023-04-29T14:09:01;3.60;;;2.00;;
20365;SDS011;10341;49.894;8.822;2023-04-29T14:14:21;2.50;;;1.88;;
20365;SDS011;10341;49.894;8.822;2023-04-29T14:19:41;2.10;;;1.70;;
20365;SDS011;10341;49.894;8.822;2023-04-29T14:25:00;2.35;;;1.70;;
20365;SDS011;10341;49.894;8.822;2023-04-29T14:30:19;2.03;;;1.83;;
20365;SDS011;10341;49.894;8.822;2023-04-29T14:35:39;3.83;;;2.00;;
20365;SDS011;10341;49.894;8.822;2023-04-29T14:40:58;1.83;;;1.50;;
20365;SDS011;10341;49.894;8.822;2023-04-29T14:46:18;2.10;;;1.47;;
20365;SDS011;10341;49.894;8.822;2023-04-29T14:51:38;1.70;;;1.50;;
20365;SDS011;10341;49.894;8.822;2023-04-29T14:56:57;1.88;;;1.70;;
20365;SDS011;10341;49.894;8.822;2023-04-29T15:02:16;1.92;;;1.50;;
20365;SDS011;10341;49.894;8.822;2023-04-29T15:07:36;1.92;;;1.73;;
20365;SDS011;10341;49.894;8.822;2023-04-29T15:12:55;1.90;;;1.67;;
20365;SDS011;10341;49.894;8.822;2023-04-29T15:18:16;1.73;;;1.50;;
20365;SDS011;10341;49.894;8.822;2023-04-29T15:23:35;1.20;;;1.08;;
20365;SDS011;10341;49.894;8.822;2023-04-29T15:28:54;1.83;;;1.07;;
20365;SDS011;10341;49.894;8.822;2023-04-29T15:34:13;2.20;;;2.03;;
20365;SDS011;10341;49.894;8.822;2023-04-29T15:39:32;2.60;;;2.15;;
20365;SDS011;10341;49.894;8.822;2023-04-29T15:44:52;2.70;;;2.15;;
20365;SDS011;10341;49.894;8.822;2023-04-29T15:50:12;2.22;;;1.42;;
20365;SDS011;10341;49.894;8.822;2023-04-29T15:55:31;1.77;;;1.40;;
20365;SDS011;10341;49.894;8.822;2023-04-29T16:00:53;3.08;;;1.83;;
20365;SDS011;10341;49.894;8.822;2023-04-29T16:06:12;3.47;;;1.73;;
20365;SDS011;10341;49.894;8.822;2023-04-29T16:11:33;1.33;;;1.10;;
20365;SDS011;10341;49.894;8.822;2023-04-29T16:16:53;1.73;;;1.40;;
20365;SDS011;10341;49.894;8.822;2023-04-29T16:22:13;11.35;;;7.10;;
20365;SDS011;10341;49.894;8.822;2023-04-29T16:27:32;17.35;;;11.43;;
20365;SDS011;10341;49.894;8.822;2023-04-29T16:32:51;4.28;;;3.10;;
20365;SDS011;10341;49.894;8.822;2023-04-29T16:38:11;4.18;;;2.78;;
20365;SDS011;10341;49.894;8.822;2023-04-29T16:43:30;31.50;;;19.20;;
20365;SDS011;10341;49.894;8.822;2023-04-29T16:48:49;4.68;;;2.63;;
20365;SDS011;10341;49.894;8.822;2023-04-29T16:54:09;4.00;;;2.33;;
20365;SDS011;10341;49.894;8.822;2023-04-29T16:59:29;6.88;;;2.60;;
20365;SDS011;10341;49.894;8.822;2023-04-29T17:04:48;2.30;;;1.80;;
20365;SDS011;10341;49.894;8.822;2023-04-29T17:10:08;3.05;;;2.35;;
20365;SDS011;10341;49.894;8.822;2023-04-29T17:15:29;3.90;;;2.20;;
20365;SDS011;10341;49.894;8.822;2023-04-29T17:20:48;3.65;;;2.70;;
20365;SDS011;10341;49.894;8.822;2023-04-29T17:26:08;4.65;;;2.85;;
20365;SDS011;10341;49.894;8.822;2023-04-29T17:31:27;5.18;;;3.28;;
20365;SDS011;10341;49.894;8.822;2023-04-29T17:37:02;5.85;;;3.53;;
20365;SDS011;10341;49.894;8.822;2023-04-29T17:42:23;5.80;;;3.85;;
20365;SDS011;10341;49.894;8.822;2023-04-29T17:47:43;7.17;;;4.37;;
20365;SDS011;10341;49.894;8.822;2023-04-29T17:53:02;4.30;;;3.13;;
20365;SDS011;10341;49.894;8.822;2023-04-29T17:58:22;9.02;;;3.22;;
20365;SDS011;10341;49.894;8.822;2023-04-29T18:03:41;5.73;;;3.60;;
20365;SDS011;10341;49.894;8.822;2023-04-29T18:09:01;5.60;;;3.67;;
20365;SDS011;10341;49.894;8.822;2023-04-29T18:14:20;5.00;;;3.90;;
20365;SDS011;10341;49.894;8.822;2023-04-29T18:19:40;5.72;;;4.10;;
20365;SDS011;10341;49.894;8.822;2023-04-29T18:24:59;8.30;;;4.20;;
20365;SDS011;10341;49.894;8.822;2023-04-29T18:30:19;6.88;;;4.13;;
20365;SDS011;10341;49.894;8.822;2023-04-29T18:35:39;7.22;;;4.47;;
20365;SDS011;10341;49.894;8.822;2023-04-29T18:40:58;6.00;;;4.35;;
20365;SDS011;10341;49.894;8.822;2023-04-29T18:46:18;7.65;;;4.50;;
20365;SDS011;10341;49.894;8.822;2023-04-29T18:51:37;8.32;;;5.55;;
20365;SDS011;10341;49.894;8.822;2023-04-29T18:56:58;6.60;;;4.82;;
20365;SDS011;10341;49.894;8.822;2023-04-29T19:02:17;6.50;;;4.40;;
20365;SDS011;10341;49.894;8.822;2023-04-29T19:07:37;7.80;;;5.38;;
20365;SDS011;10341;49.894;8.822;2023-04-29T19:12:57;8.05;;;5.20;;
20365;SDS011;10341;49.894;8.822;2023-04-29T19:18:16;8.13;;;5.32;;
20365;SDS011;10341;49.894;8.822;2023-04-29T19:23:37;8.05;;;5.32;;
20365;SDS011;10341;49.894;8.822;2023-04-29T19:28:56;7.57;;;5.38;;
20365;SDS011;10341;49.894;8.822;2023-04-29T19:34:17;7.40;;;4.70;;
20365;SDS011;10341;49.894;8.822;2023-04-29T19:39:37;9.40;;;5.85;;
20365;SDS011;10341;49.894;8.822;2023-04-29T19:44:56;8.55;;;6.00;;
20365;SDS011;10341;49.894;8.822;2023-04-29T19:50:15;8.55;;;6.38;;
20365;SDS011;10341;49.894;8.822;2023-04-29T19:55:35;9.52;;;6.28;;
20365;SDS011;10341;49.894;8.822;2023-04-29T20:00:57;9.82;;;6.35;;
20365;SDS011;10341;49.894;8.822;2023-04-29T20:06:16;9.35;;;6.45;;
20365;SDS011;10341;49.894;8.822;2023-04-29T20:11:36;9.50;;;6.30;;
20365;SDS011;10341;49.894;8.822;2023-04-29T20:16:56;7.55;;;5.53;;
20365;SDS011;10341;49.894;8.822;2023-04-29T20:27:39;8.25;;;5.72;;
20365;SDS011;10341;49.894;8.822;2023-04-29T20:38:19;13.48;;;8.43;;
20365;SDS011;10341;49.894;8.822;2023-04-29T20:43:38;9.50;;;6.60;;
20365;SDS011;10341;49.894;8.822;2023-04-29T20:48:58;8.77;;;6.50;;
20365;SDS011;10341;49.894;8.822;2023-04-29T20:54:18;8.43;;;6.00;;
20365;SDS011;10341;49.894;8.822;2023-04-29T20:59:37;11.20;;;7.40;;
20365;SDS011;10341;49.894;8.822;2023-04-29T21:04:56;9.75;;;6.68;;
20365;SDS011;10341;49.894;8.822;2023-04-29T21:10:16;10.10;;;6.90;;
20365;SDS011;10341;49.894;8.822;2023-04-29T21:15:35;8.73;;;5.93;;
20365;SDS011;10341;49.894;8.822;2023-04-29T21:20:55;8.70;;;6.22;;
20365;SDS011;10341;49.894;8.822;2023-04-29T21:26:14;10.75;;;6.65;;
20365;SDS011;10341;49.894;8.822;2023-04-29T21:31:34;10.05;;;6.43;;
20365;SDS011;10341;49.894;8.822;2023-04-29T21:36:53;10.02;;;7.00;;
20365;SDS011;10341;49.894;8.822;2023-04-29T21:42:13;9.23;;;6.35;;
20365;SDS011;10341;49.894;8.822;2023-04-29T21:47:32;9.48;;;6.32;;
20365;SDS011;10341;49.894;8.822;2023-04-29T21:52:52;9.45;;;6.45;;
20365;SDS011;10341;49.894;8.822;2023-04-29T21:58:13;7.55;;;5.80;;
20365;SDS011;10341;49.894;8.822;2023-04-29T22:03:34;10.35;;;7.00;;
20365;SDS011;10341;49.894;8.822;2023-04-29T22:14:13;9.52;;;7.05;;
20365;SDS011;10341;49.894;8.822;2023-04-29T22:19:32;8.70;;;6.72;;
20365;SDS011;10341;49.894;8.822;2023-04-29T22:24:51;12.03;;;7.27;;
20365;SDS011;10341;49.894;8.822;2023-04-29T22:30:10;9.57;;;6.68;;
20365;SDS011;10341;49.894;8.822;2023-04-29T22:35:29;14.25;;;8.05;;
20365;SDS011;10341;49.894;8.822;2023-04-29T22:40:49;10.50;;;7.57;;
20365;SDS011;10341;49.894;8.822;2023-04-29T22:46:08;9.15;;;6.65;;
20365;SDS011;10341;49.894;8.822;2023-04-29T22:51:28;9.70;;;6.68;;
20365;SDS011;10341;49.894;8.822;2023-04-29T22:56:47;10.80;;;7.38;;
20365;SDS011;10341;49.894;8.822;2023-04-29T23:02:06;8.80;;;6.88;;
20365;SDS011;10341;49.894;8.822;2023-04-29T23:07:26;9.48;;;6.72;;
20365;SDS011;10341;49.894;8.822;2023-04-29T23:12:45;11.25;;;7.43;;
20365;SDS011;10341;49.894;8.822;2023-04-29T23:18:04;12.70;;;7.68;;
20365;SDS011;10341;49.894;8.822;2023-04-29T23:23:24;12.88;;;8.20;;
20365;SDS011;10341;49.894;8.822;2023-04-29T23:28:43;10.73;;;7.53;;
20365;SDS011;10341;49.894;8.822;2023-04-29T23:34:02;10.73;;;7.75;;
20365;SDS011;10341;49.894;8.822;2023-04-29T23:39:21;9.63;;;7.53;;
20365;SDS011;10341;49.894;8.822;2023-04-29T23:44:40;11.27;;;7.57;;
20365;SDS011;10341;49.894;8.822;2023-04-29T23:49:59;11.82;;;7.60;;
20365;SDS011;10341;49.894;8.822;2023-04-29T23:55:18;11.67;;;8.17;;
